KMUI/MUI METAR and TAF weather

Enter ICAO airport designator
Station Type Date Time Source
KMUI METAR 2020/08/06 00:56 UTC NOAA

KMUI 060056Z 00000KT 10SM FEW060 SCT250 22/15 A3005 RMK AO2A SLP176 WND DATA ESTMD T02230151 $


Station Type Date Time Source
KMUI Decoded METAR 2020/08/06 00:56 UTC NOAA

Muir Army Air Field / Indiantown, PA, United States (KMUI) 40-26N 076-34W
Aug 05, 2020 - 08:56 PM EDT / 2020.08.06 0056 UTC
Wind: Calm:0
Visibility: 10 mile(s):0
Sky conditions: partly cloudy
Temperature: 72.1 F (22.3 C)
Dew Point: 59.2 F (15.1 C)
Relative Humidity: 63%
Pressure (altimeter): 30.05 in. Hg (1017 hPa)
ob: KMUI 060056Z 00000KT 10SM FEW060 SCT250 22/15 A3005 RMK AO2A SLP176 WND DATA ESTMD T02230151
cycle: 1

Station Type Date Time Source
KMUI TAF 2020/08/05 19:06 UTC NOAA

TAF KMUI 051900Z 0519/0701 VRB06KT 9999 SCT055 QNH3005INS
BECMG 0611/0612 02009KT 9000 -SHRA BKN045 QNH3010INS
BECMG 0700/0701 10009KT 9000 -SHRA BKN025 QNH3009INS TX29/0520Z TN18/0608Z LAST NO
AMDS AFT 0605 NEXT 0611

Example: see airport list